createdAt,value
2019-04-16T00:02:48.488Z,101046.73
2019-04-16T00:05:51.449Z,101046.49
2019-04-16T00:08:46.272Z,101042.62
2019-04-16T00:11:47.212Z,101035.03
2019-04-16T00:14:41.692Z,101035.11
2019-04-16T00:17:31.504Z,101030.50
2019-04-16T00:20:22.654Z,101028.40
2019-04-16T00:23:18.427Z,101027.64
2019-04-16T00:26:08.260Z,101021.00
2019-04-16T00:29:01.596Z,101021.59
2019-04-16T00:31:53.551Z,101012.77
2019-04-16T00:34:44.865Z,101013.23
2019-04-16T00:37:35.519Z,101007.09
2019-04-16T00:40:26.603Z,101009.36
2019-04-16T00:43:17.149Z,101000.53
2019-04-16T00:46:08.310Z,100998.42
2019-04-16T00:48:58.089Z,100996.75
2019-04-16T00:51:48.521Z,100997.45
2019-04-16T00:54:39.216Z,100996.11
2019-04-16T00:57:30.098Z,100998.80
2019-04-16T01:00:20.054Z,100995.78
2019-04-16T01:03:10.444Z,100990.61
2019-04-16T01:06:00.471Z,100994.14
2019-04-16T01:08:54.753Z,100992.79
2019-04-16T01:11:41.936Z,100999.52
2019-04-16T01:14:32.162Z,100999.69
2019-04-16T01:17:22.270Z,100994.22
2019-04-16T01:20:13.113Z,100994.59
2019-04-16T01:23:03.475Z,100998.50
2019-04-16T01:25:55.664Z,101000.23
2019-04-16T01:28:51.055Z,100995.43
2019-04-16T01:31:58.517Z,100994.38
2019-04-16T01:35:18.653Z,100995.59
2019-04-16T01:38:20.316Z,100993.42
2019-04-16T01:41:12.151Z,100993.23
2019-04-16T01:44:01.978Z,100987.67
2019-04-16T01:46:52.018Z,100979.65
2019-04-16T01:49:42.157Z,100983.05
2019-04-16T01:52:32.313Z,100990.31
2019-04-16T01:55:25.547Z,100985.84
2019-04-16T01:58:13.597Z,100986.22
2019-04-16T02:01:04.144Z,100987.13
2019-04-16T02:03:53.495Z,100988.00
2019-04-16T02:06:42.844Z,100989.34
2019-04-16T02:09:34.713Z,100993.51
2019-04-16T02:12:24.356Z,100990.82
2019-04-16T02:15:14.214Z,100990.48
2019-04-16T02:18:04.073Z,100994.38
2019-04-16T02:20:53.883Z,100990.75
2019-04-16T02:23:45.402Z,100990.82
2019-04-16T02:26:35.688Z,100998.55
2019-04-16T02:29:29.802Z,100992.53
2019-04-16T02:32:16.638Z,101001.09
2019-04-16T02:35:07.293Z,101001.30
2019-04-16T02:37:57.389Z,100997.13
2019-04-16T02:40:51.988Z,101000.52
2019-04-16T02:43:41.030Z,101001.36
2019-04-16T02:46:32.484Z,101000.19
2019-04-16T02:49:24.486Z,100996.16
2019-04-16T02:52:20.784Z,100998.00
2019-04-16T02:55:42.927Z,100990.34
2019-04-16T02:58:34.399Z,100991.28
2019-04-16T03:02:00.074Z,100988.67
2019-04-16T03:04:58.216Z,100992.89
2019-04-16T03:07:47.312Z,100989.44
2019-04-16T03:10:37.415Z,100982.72
2019-04-16T03:13:28.263Z,100984.91
2019-04-16T03:16:30.975Z,100983.02
2019-04-16T03:19:25.469Z,100983.22
2019-04-16T03:22:15.142Z,100981.38
2019-04-16T03:25:05.680Z,100982.72
2019-04-16T03:27:55.765Z,100988.23
2019-04-16T03:30:45.338Z,100984.91
2019-04-16T03:33:35.520Z,100979.70
2019-04-16T03:36:26.487Z,100981.75
2019-04-16T03:39:16.615Z,100980.59
2019-04-16T03:42:06.853Z,100986.47
2019-04-16T03:44:56.680Z,100983.45
2019-04-16T03:47:50.941Z,100977.30
2019-04-16T03:50:37.558Z,100973.81
2019-04-16T03:53:27.553Z,100975.86
2019-04-16T03:56:17.563Z,100984.42
2019-04-16T03:59:10.731Z,100982.44
2019-04-16T04:01:59.025Z,100981.12
2019-04-16T04:04:57.580Z,100982.02
2019-04-16T04:07:45.874Z,100986.27
2019-04-16T04:10:37.074Z,100986.53
2019-04-16T04:13:26.162Z,100982.92
2019-04-16T04:16:16.430Z,100978.61
2019-04-16T04:19:06.636Z,100976.85
2019-04-16T04:21:56.140Z,100987.64
2019-04-16T04:24:45.902Z,100986.34
2019-04-16T04:27:35.635Z,100982.55
2019-04-16T04:30:28.692Z,100986.95
2019-04-16T04:33:40.909Z,100985.63
2019-04-16T04:36:28.418Z,100990.05
2019-04-16T04:39:18.427Z,100990.59
2019-04-16T04:42:08.682Z,100986.05
2019-04-16T04:44:59.275Z,100983.70
2019-04-16T04:47:51.590Z,100991.39
2019-04-16T04:50:41.251Z,100992.03
2019-04-16T04:53:31.513Z,100986.28
2019-04-16T04:56:21.467Z,100989.25
2019-04-16T04:59:11.496Z,100983.47
2019-04-16T05:02:02.584Z,100987.58
2019-04-16T05:04:57.886Z,100983.48
2019-04-16T05:07:47.773Z,100979.67
2019-04-16T05:10:42.791Z,100979.00
2019-04-16T05:13:29.855Z,100972.77
2019-04-16T05:16:19.833Z,100988.30
2019-04-16T05:19:13.802Z,100980.00
2019-04-16T05:22:00.835Z,100984.94
2019-04-16T05:24:51.005Z,100986.39
2019-04-16T05:27:41.586Z,100990.02
2019-04-16T05:30:31.495Z,100987.19
2019-04-16T05:33:21.931Z,100989.81
2019-04-16T05:36:14.568Z,100988.80
2019-04-16T05:39:06.656Z,100993.93
2019-04-16T05:41:57.059Z,100987.08
2019-04-16T05:44:46.730Z,100986.25
2019-04-16T05:47:36.712Z,100989.44
2019-04-16T05:50:29.650Z,100983.48
2019-04-16T05:53:18.634Z,100987.59
2019-04-16T05:56:24.095Z,100981.69
2019-04-16T05:59:13.295Z,100984.47
2019-04-16T06:02:25.301Z,100989.36
2019-04-16T06:05:15.397Z,100988.30
2019-04-16T06:08:11.951Z,100981.17
2019-04-16T06:11:01.770Z,100987.84
2019-04-16T06:14:00.315Z,100988.73
2019-04-16T06:17:19.000Z,100987.93
2019-04-16T06:20:19.568Z,100985.34
2019-04-16T06:23:24.735Z,100991.98
2019-04-16T06:26:34.022Z,100991.92
2019-04-16T06:29:33.706Z,100983.95
2019-04-16T06:32:31.874Z,100984.11
2019-04-16T06:35:43.396Z,100986.53
2019-04-16T06:38:37.746Z,100986.66
2019-04-16T06:41:58.831Z,100991.31
2019-04-16T06:44:54.091Z,100995.50
2019-04-16T06:48:13.125Z,100992.42
2019-04-16T06:51:32.935Z,100986.93
2019-04-16T06:54:34.378Z,100986.47
2019-04-16T06:57:42.958Z,100982.85
2019-04-16T07:01:11.292Z,100985.95
2019-04-16T07:04:08.621Z,100982.90
2019-04-16T07:07:16.527Z,100983.69
2019-04-16T07:10:13.919Z,100984.75
2019-04-16T07:13:04.019Z,100979.41
2019-04-16T07:15:56.896Z,100974.98
2019-04-16T07:18:45.935Z,100987.31
2019-04-16T07:21:35.763Z,100975.81
2019-04-16T07:24:30.194Z,100972.30
2019-04-16T07:27:20.051Z,100982.60
2019-04-16T07:30:19.709Z,100984.12
2019-04-16T07:33:15.990Z,100976.91
2019-04-16T07:36:24.219Z,100975.69
2019-04-16T07:39:29.803Z,100975.60
2019-04-16T07:42:22.796Z,100978.50
2019-04-16T07:45:25.911Z,100971.75
2019-04-16T07:48:35.151Z,100972.78
2019-04-16T07:51:30.052Z,100964.27
2019-04-16T07:54:37.803Z,100968.20
2019-04-16T07:57:27.594Z,100964.37
2019-04-16T08:00:18.031Z,100959.98
2019-04-16T08:03:07.813Z,100966.13
2019-04-16T08:05:57.912Z,100967.31
2019-04-16T08:08:48.958Z,100969.98
2019-04-16T08:11:39.086Z,100965.59
2019-04-16T08:14:29.387Z,100968.59
2019-04-16T08:17:19.465Z,100968.05
2019-04-16T08:20:09.604Z,100965.63
2019-04-16T08:23:02.034Z,100967.39
2019-04-16T08:26:01.956Z,100964.66
2019-04-16T08:28:43.218Z,100958.13
2019-04-16T08:31:35.715Z,100954.10
2019-04-16T08:34:24.680Z,100962.40
2019-04-16T08:37:14.153Z,100962.13
2019-04-16T08:40:03.909Z,100961.03
2019-04-16T08:42:56.989Z,100969.25
2019-04-16T08:45:45.386Z,100961.02
2019-04-16T08:48:35.140Z,100957.73
2019-04-16T08:51:30.973Z,100959.38
2019-04-16T08:54:18.182Z,100958.30
2019-04-16T08:57:08.403Z,100958.81
2019-04-16T08:59:58.453Z,100954.38
2019-04-16T09:02:48.533Z,100954.41
2019-04-16T09:05:41.273Z,100952.15
2019-04-16T09:08:44.018Z,100958.63
2019-04-16T09:11:35.465Z,100960.03
2019-04-16T09:14:28.157Z,100967.66
2019-04-16T09:17:36.715Z,100960.24
2019-04-16T09:20:31.534Z,100961.59
2019-04-16T09:23:22.740Z,100958.83
2019-04-16T09:26:30.930Z,100965.70
2019-04-16T09:29:39.134Z,100965.76
2019-04-16T09:33:00.404Z,100963.05
2019-04-16T09:36:10.474Z,100965.97
2019-04-16T09:39:05.976Z,100955.34
2019-04-16T09:41:56.232Z,100962.80
2019-04-16T09:44:46.319Z,100965.06
2019-04-16T09:47:36.352Z,100960.17
2019-04-16T09:50:26.283Z,100955.83
2019-04-16T09:53:16.291Z,100954.97
2019-04-16T09:56:28.367Z,100952.77
2019-04-16T09:59:39.665Z,100953.80
2019-04-16T10:02:32.822Z,100948.08
2019-04-16T10:05:22.395Z,100950.00
2019-04-16T10:08:12.645Z,100944.26
2019-04-16T10:11:06.003Z,100954.58
2019-04-16T10:13:54.632Z,100956.20
2019-04-16T10:16:45.170Z,100947.43
2019-04-16T10:19:35.301Z,100945.16
2019-04-16T10:22:25.256Z,100942.11
2019-04-16T10:25:15.902Z,100949.88
2019-04-16T10:28:14.993Z,100943.84
2019-04-16T10:31:05.173Z,100938.41
2019-04-16T10:33:55.070Z,100933.53
2019-04-16T10:36:44.923Z,100936.41
2019-04-16T10:39:39.597Z,100939.11
2019-04-16T10:42:51.503Z,100936.19
2019-04-16T10:45:56.249Z,100926.97
2019-04-16T10:48:53.783Z,100933.72
2019-04-16T10:52:01.661Z,100920.98
2019-04-16T10:55:09.403Z,100912.79
2019-04-16T10:58:17.351Z,100921.08
2019-04-16T11:01:55.344Z,100922.29
2019-04-16T11:05:02.183Z,100911.12
2019-04-16T11:07:51.622Z,100905.23
2019-04-16T11:10:41.998Z,100908.86
2019-04-16T11:13:35.015Z,100902.70
2019-04-16T11:16:25.125Z,100904.20
2019-04-16T11:19:15.264Z,100895.50
2019-04-16T11:22:05.671Z,100892.73
2019-04-16T11:24:55.696Z,100891.80
2019-04-16T11:27:46.013Z,100893.28
2019-04-16T11:30:41.281Z,100885.76
2019-04-16T11:33:31.227Z,100886.02
2019-04-16T11:36:21.172Z,100882.36
2019-04-16T11:39:11.898Z,100878.97
2019-04-16T11:42:02.193Z,100881.52
2019-04-16T11:44:52.108Z,100879.24
2019-04-16T11:47:43.221Z,100880.73
2019-04-16T11:50:35.854Z,100881.53
2019-04-16T11:53:24.303Z,100879.50
2019-04-16T11:56:14.093Z,100876.30
2019-04-16T11:59:05.199Z,100879.44
2019-04-16T12:02:10.651Z,100883.27
2019-04-16T12:05:04.925Z,100887.84
2019-04-16T12:08:03.720Z,100879.89
2019-04-16T12:11:12.307Z,100875.36
2019-04-16T12:14:30.990Z,100877.48
2019-04-16T12:17:22.193Z,100876.72
2019-04-16T12:20:22.803Z,100871.73
2019-04-16T12:23:32.241Z,100878.98
2019-04-16T12:26:49.073Z,100876.20
2019-04-16T12:29:49.402Z,100862.99
2019-04-16T12:32:47.418Z,100872.92
2019-04-16T12:35:54.373Z,100865.22
2019-04-16T12:38:57.659Z,100861.78
2019-04-16T12:42:06.629Z,100856.11
2019-04-16T12:45:00.438Z,100857.17
2019-04-16T12:48:08.154Z,100852.78
2019-04-16T12:51:19.559Z,100854.77
2019-04-16T12:54:28.719Z,100853.42
2019-04-16T12:57:33.782Z,100856.73
2019-04-16T13:00:55.415Z,100857.98
2019-04-16T13:03:52.610Z,100842.02
2019-04-16T13:06:48.951Z,100846.87
2019-04-16T13:09:56.777Z,100854.28
2019-04-16T13:13:17.708Z,100845.02
2019-04-16T13:16:13.548Z,100851.08
2019-04-16T13:19:21.679Z,100842.03
2019-04-16T13:22:12.128Z,100844.97
2019-04-16T13:25:08.997Z,100842.14
2019-04-16T13:27:58.842Z,100851.41
2019-04-16T13:30:48.399Z,100842.72
2019-04-16T13:33:38.310Z,100833.73
2019-04-16T13:36:28.329Z,100836.17
2019-04-16T13:39:47.700Z,100837.72
2019-04-16T13:42:38.034Z,100833.77
2019-04-16T13:45:31.213Z,100828.73
2019-04-16T13:48:29.264Z,100830.42
2019-04-16T13:51:21.344Z,100832.83
2019-04-16T13:54:21.208Z,100821.88
2019-04-16T13:57:14.730Z,100823.95
2019-04-16T14:00:14.003Z,100830.07
2019-04-16T14:03:08.529Z,100829.04
2019-04-16T14:05:58.385Z,100829.92
2019-04-16T14:08:48.434Z,100838.59
2019-04-16T14:11:38.118Z,100829.71
2019-04-16T14:14:29.464Z,100828.81
2019-04-16T14:17:22.651Z,100829.91
2019-04-16T14:20:13.973Z,100821.47
2019-04-16T14:23:04.602Z,100833.25
2019-04-16T14:25:54.502Z,100830.23
2019-04-16T14:28:52.114Z,100838.87
2019-04-16T14:31:36.313Z,100834.63
2019-04-16T14:35:00.231Z,100832.30
2019-04-16T14:37:49.940Z,100830.07
2019-04-16T14:40:42.355Z,100837.38
2019-04-16T14:43:35.552Z,100831.66
2019-04-16T14:46:28.281Z,100833.23
2019-04-16T14:49:18.241Z,100834.77
2019-04-16T14:52:09.092Z,100842.95
2019-04-16T14:55:03.873Z,100844.22
2019-04-16T14:58:05.063Z,100835.64
2019-04-16T15:01:05.370Z,100838.66
2019-04-16T15:04:13.394Z,100842.77
2019-04-16T15:07:12.317Z,100841.72
2019-04-16T15:10:27.415Z,100837.59
2019-04-16T15:13:31.120Z,100853.58
2019-04-16T15:16:36.744Z,100846.50
2019-04-16T15:19:28.762Z,100849.61
2019-04-16T15:22:36.115Z,100854.77
2019-04-16T15:25:29.413Z,100849.87
2019-04-16T15:28:23.091Z,100846.30
2019-04-16T15:31:19.650Z,100848.23
2019-04-16T15:34:15.587Z,100853.72
2019-04-16T15:37:19.273Z,100849.60
2019-04-16T15:40:19.028Z,100855.92
2019-04-16T15:43:31.113Z,100853.21
2019-04-16T15:46:41.381Z,100852.42
2019-04-16T15:49:55.662Z,100847.48
2019-04-16T15:53:02.616Z,100855.19
2019-04-16T15:55:57.898Z,100854.11
2019-04-16T15:59:08.263Z,100856.58
2019-04-16T16:02:14.797Z,100857.11
2019-04-16T16:05:25.994Z,100862.02
2019-04-16T16:08:43.909Z,100858.50
2019-04-16T16:11:51.822Z,100863.42
2019-04-16T16:14:41.864Z,100859.31
2019-04-16T16:17:32.962Z,100862.31
2019-04-16T16:20:23.048Z,100866.97
2019-04-16T16:23:13.648Z,100870.28
2019-04-16T16:26:03.472Z,100875.47
2019-04-16T16:28:53.398Z,100870.56
2019-04-16T16:31:44.240Z,100873.02
2019-04-16T16:34:34.657Z,100877.96
2019-04-16T16:37:24.453Z,100881.53
2019-04-16T16:40:16.058Z,100881.52
2019-04-16T16:43:08.381Z,100880.67
2019-04-16T16:46:26.847Z,100876.81
2019-04-16T16:49:16.769Z,100871.89
2019-04-16T16:52:24.349Z,100872.70
2019-04-16T16:55:29.343Z,100876.27
2019-04-16T16:58:42.182Z,100885.84
2019-04-16T17:01:38.832Z,100882.48
2019-04-16T17:04:31.714Z,100882.23
2019-04-16T17:07:20.852Z,100886.05
2019-04-16T17:10:10.747Z,100890.47
2019-04-16T17:13:00.935Z,100888.53
2019-04-16T17:15:50.916Z,100888.49
2019-04-16T17:18:40.929Z,100890.48
2019-04-16T17:21:30.029Z,100894.63
2019-04-16T17:24:19.750Z,100889.98
2019-04-16T17:27:09.601Z,100886.41
2019-04-16T17:29:59.629Z,100886.37
2019-04-16T17:32:49.564Z,100891.76
2019-04-16T17:35:39.493Z,100894.25
2019-04-16T17:38:29.280Z,100899.16
2019-04-16T17:41:24.547Z,100897.48
2019-04-16T17:44:29.231Z,100897.67
2019-04-16T17:47:36.479Z,100902.01
2019-04-16T17:50:41.708Z,100909.38
2019-04-16T17:53:44.244Z,100915.08
2019-04-16T17:57:08.518Z,100920.20
2019-04-16T18:00:16.973Z,100923.13
2019-04-16T18:03:24.869Z,100923.86
2019-04-16T18:06:32.494Z,100927.56
2019-04-16T18:09:44.085Z,100927.76
2019-04-16T18:12:56.459Z,100946.27
2019-04-16T18:15:54.191Z,100951.34
2019-04-16T18:18:55.566Z,100949.80
2019-04-16T18:22:11.013Z,100950.77
2019-04-16T18:25:25.583Z,100956.19
2019-04-16T18:28:29.264Z,100964.31
2019-04-16T18:31:27.877Z,100965.84
2019-04-16T18:34:40.275Z,100966.83
2019-04-16T18:37:48.738Z,100972.98
2019-04-16T18:40:45.749Z,100978.92
2019-04-16T18:43:53.155Z,100986.47
2019-04-16T18:47:11.681Z,100986.84
2019-04-16T18:50:05.405Z,100992.70
2019-04-16T18:52:55.478Z,100995.47
2019-04-16T18:55:45.529Z,101002.16
2019-04-16T18:58:35.543Z,101004.53
2019-04-16T19:01:32.613Z,101005.80
2019-04-16T19:04:21.552Z,101013.41
2019-04-16T19:07:11.606Z,101016.03
2019-04-16T19:10:00.885Z,101016.78
2019-04-16T19:12:51.614Z,101022.30
2019-04-16T19:15:41.262Z,101024.52
2019-04-16T19:18:30.812Z,101025.20
2019-04-16T19:21:20.923Z,101027.83
2019-04-16T19:24:10.212Z,101030.27
2019-04-16T19:27:00.547Z,101037.56
2019-04-16T19:29:50.235Z,101035.04
2019-04-16T19:32:39.918Z,101038.24
2019-04-16T19:35:29.521Z,101039.17
2019-04-16T19:38:19.856Z,101044.31
2019-04-16T19:41:09.889Z,101041.73
2019-04-16T19:43:59.843Z,101047.68
2019-04-16T19:46:52.595Z,101051.59
2019-04-16T19:49:40.551Z,101059.91
2019-04-16T19:52:30.689Z,101061.16
2019-04-16T19:55:20.363Z,101053.70
2019-04-16T19:58:10.450Z,101059.87
2019-04-16T20:01:00.864Z,101062.22
2019-04-16T20:03:51.239Z,101060.78
2019-04-16T20:06:41.500Z,101067.98
2019-04-16T20:09:31.629Z,101069.53
2019-04-16T20:12:21.296Z,101074.61
2019-04-16T20:15:11.401Z,101070.13
2019-04-16T20:18:01.647Z,101070.25
2019-04-16T20:20:50.943Z,101070.41
2019-04-16T20:23:40.685Z,101069.62
2019-04-16T20:26:32.432Z,101071.97
2019-04-16T20:29:22.354Z,101076.55
2019-04-16T20:32:13.284Z,101075.33
2019-04-16T20:35:03.791Z,101080.89
2019-04-16T20:37:55.291Z,101076.92
2019-04-16T20:40:45.397Z,101082.81
2019-04-16T20:43:34.946Z,101080.52
2019-04-16T20:46:25.199Z,101086.45
2019-04-16T20:49:16.868Z,101083.56
2019-04-16T20:52:06.380Z,101086.31
2019-04-16T20:54:56.204Z,101084.67
2019-04-16T20:57:46.022Z,101093.03
2019-04-16T21:00:42.313Z,101097.00
2019-04-16T21:03:31.262Z,101092.30
2019-04-16T21:06:21.515Z,101094.36
2019-04-16T21:09:11.522Z,101093.09
2019-04-16T21:12:00.943Z,101089.86
2019-04-16T21:14:53.586Z,101086.78
2019-04-16T21:17:42.310Z,101087.48
2019-04-16T21:20:32.163Z,101085.14
2019-04-16T21:23:22.030Z,101092.69
2019-04-16T21:26:11.892Z,101096.38
2019-04-16T21:29:23.438Z,101097.91
2019-04-16T21:32:31.409Z,101106.12
2019-04-16T21:35:28.766Z,101109.28
2019-04-16T21:38:36.528Z,101110.81
2019-04-16T21:41:28.527Z,101106.14
2019-04-16T21:44:18.001Z,101108.39
2019-04-16T21:47:06.942Z,101109.67
2019-04-16T21:49:56.706Z,101112.39
2019-04-16T21:52:46.623Z,101107.48
2019-04-16T21:55:36.893Z,101110.36
2019-04-16T21:58:28.513Z,101115.19
2019-04-16T22:01:35.838Z,101116.91
2019-04-16T22:04:26.431Z,101114.44
2019-04-16T22:07:16.497Z,101115.40
2019-04-16T22:10:07.344Z,101113.67
2019-04-16T22:12:57.545Z,101116.52
2019-04-16T22:15:46.860Z,101116.07
2019-04-16T22:18:37.577Z,101126.00
2019-04-16T22:21:28.241Z,101124.80
2019-04-16T22:24:19.729Z,101123.92
2019-04-16T22:27:09.835Z,101130.81
2019-04-16T22:29:59.524Z,101126.82
2019-04-16T22:32:49.743Z,101131.95
2019-04-16T22:35:39.775Z,101131.27
2019-04-16T22:38:31.403Z,101131.70
2019-04-16T22:41:29.359Z,101125.08
2019-04-16T22:44:28.902Z,101132.44
2019-04-16T22:47:22.250Z,101131.00
2019-04-16T22:50:16.983Z,101134.55
2019-04-16T22:53:04.269Z,101135.90
2019-04-16T22:55:56.706Z,101134.89
2019-04-16T22:58:51.657Z,101133.16
2019-04-16T23:01:44.986Z,101131.17
2019-04-16T23:04:34.621Z,101130.28
2019-04-16T23:07:24.552Z,101127.39
2019-04-16T23:10:14.353Z,101135.06
2019-04-16T23:13:04.433Z,101131.11
2019-04-16T23:15:53.988Z,101136.67
2019-04-16T23:18:48.793Z,101136.78
2019-04-16T23:21:36.092Z,101138.05
2019-04-16T23:24:27.750Z,101134.78
2019-04-16T23:27:17.239Z,101135.20
2019-04-16T23:30:09.065Z,101135.54
2019-04-16T23:33:00.028Z,101147.58
2019-04-16T23:35:50.515Z,101147.59
2019-04-16T23:38:40.640Z,101150.98
2019-04-16T23:41:30.330Z,101150.17
2019-04-16T23:44:37.529Z,101150.38
2019-04-16T23:47:51.178Z,101154.56
2019-04-16T23:51:03.441Z,101155.12
2019-04-16T23:53:58.795Z,101152.22
2019-04-16T23:57:13.969Z,101155.47
